createdAt,value
2023-04-27T00:00:48.556Z,78.71
2023-04-27T00:03:16.207Z,77.85
2023-04-27T00:05:44.225Z,74.96
2023-04-27T00:08:11.185Z,74.71
2023-04-27T00:10:37.777Z,73.59
2023-04-27T00:13:04.651Z,73.31
2023-04-27T00:15:31.411Z,72.27
2023-04-27T00:17:58.016Z,72.78
2023-04-27T00:20:25.233Z,72.19
2023-04-27T00:22:51.957Z,72.81
2023-04-27T00:25:18.527Z,72.95
2023-04-27T00:27:45.220Z,72.86
2023-04-27T00:30:12.008Z,72.95
2023-04-27T00:32:38.622Z,75.55
2023-04-27T00:35:05.390Z,74.77
2023-04-27T00:37:32.514Z,74.71
2023-04-27T00:39:59.052Z,74.86
2023-04-27T00:42:25.738Z,74.62
2023-04-27T00:44:52.333Z,75.23
2023-04-27T00:47:19.296Z,75.80
2023-04-27T00:49:46.097Z,76.32
2023-04-27T00:52:12.674Z,76.86
2023-04-27T00:54:39.240Z,77.81
2023-04-27T00:57:06.465Z,78.45
2023-04-27T00:59:33.054Z,78.83
2023-04-27T01:01:59.741Z,78.92
2023-04-27T01:04:27.115Z,77.52
2023-04-27T01:06:53.970Z,77.66
2023-04-27T01:09:21.500Z,77.63
2023-04-27T01:11:48.016Z,77.48
2023-04-27T01:14:14.897Z,77.60
2023-04-27T01:16:41.434Z,79.88
2023-04-27T01:19:08.801Z,78.49
2023-04-27T01:21:35.614Z,80.25
2023-04-27T01:24:04.074Z,77.19
2023-04-27T01:26:30.677Z,76.47
2023-04-27T01:28:57.288Z,76.35
2023-04-27T01:31:24.357Z,75.91
2023-04-27T01:33:51.019Z,77.43
2023-04-27T01:36:17.612Z,73.97
2023-04-27T01:38:44.366Z,72.87
2023-04-27T01:41:10.931Z,72.28
2023-04-27T01:43:37.487Z,72.72
2023-04-27T01:46:13.964Z,73.50
2023-04-27T01:48:41.047Z,74.66
2023-04-27T01:51:07.773Z,76.39
2023-04-27T01:53:34.652Z,77.27
2023-04-27T01:56:01.311Z,78.25
2023-04-27T01:58:28.328Z,79.05
2023-04-27T02:00:55.033Z,79.94
2023-04-27T02:03:22.190Z,79.09
2023-04-27T02:05:49.073Z,79.63
2023-04-27T02:08:15.670Z,85.34
2023-04-27T02:10:42.287Z,82.73
2023-04-27T02:13:09.974Z,80.47
2023-04-27T02:15:36.656Z,78.98
2023-04-27T02:18:03.625Z,78.19
2023-04-27T02:20:31.399Z,78.02
2023-04-27T02:22:58.001Z,78.28
2023-04-27T02:25:24.883Z,77.54
2023-04-27T02:27:51.513Z,77.35
2023-04-27T02:30:18.305Z,76.95
2023-04-27T02:32:46.405Z,77.28
2023-04-27T02:35:13.217Z,77.39
2023-04-27T02:37:39.846Z,77.94
2023-04-27T02:40:08.001Z,77.44
2023-04-27T02:42:34.698Z,77.82
2023-04-27T02:45:01.247Z,78.39
2023-04-27T02:47:27.895Z,78.75
2023-04-27T02:49:54.512Z,78.29
2023-04-27T02:52:21.270Z,77.48
2023-04-27T02:54:47.820Z,76.81
2023-04-27T02:57:14.412Z,77.31
2023-04-27T02:59:41.025Z,77.77
2023-04-27T03:02:07.822Z,77.65
2023-04-27T03:04:36.664Z,76.85
2023-04-27T03:07:03.769Z,76.86
2023-04-27T03:09:30.289Z,76.97
2023-04-27T03:11:56.856Z,77.31
2023-04-27T03:14:23.475Z,77.01
2023-04-27T03:16:50.082Z,76.95
2023-04-27T03:19:16.759Z,76.77
2023-04-27T03:21:43.347Z,76.95
2023-04-27T03:24:09.912Z,76.84
2023-04-27T03:26:36.488Z,77.57
2023-04-27T03:29:03.019Z,77.04
2023-04-27T03:31:29.614Z,76.92
2023-04-27T03:33:57.128Z,76.49
2023-04-27T03:36:23.706Z,76.61
2023-04-27T03:38:50.283Z,76.67
2023-04-27T03:41:16.895Z,77.33
2023-04-27T03:43:43.534Z,76.93
2023-04-27T03:46:10.114Z,77.28
2023-04-27T03:48:36.850Z,76.79
2023-04-27T03:51:03.519Z,77.04
2023-04-27T03:53:30.099Z,77.05
2023-04-27T03:55:56.688Z,76.44
2023-04-27T03:58:23.266Z,76.00
2023-04-27T04:00:49.849Z,76.21
2023-04-27T04:03:16.607Z,75.96
2023-04-27T04:05:43.516Z,79.06
2023-04-27T04:08:10.066Z,79.38
2023-04-27T04:10:36.929Z,77.46
2023-04-27T04:13:03.498Z,74.91
2023-04-27T04:15:30.188Z,75.21
2023-04-27T04:17:56.913Z,77.50
2023-04-27T04:20:23.565Z,77.38
2023-04-27T04:22:50.125Z,76.12
2023-04-27T04:25:16.722Z,75.48
2023-04-27T04:27:46.303Z,74.16
2023-04-27T04:30:13.546Z,74.09
2023-04-27T04:32:40.374Z,74.26
2023-04-27T04:35:07.169Z,74.11
2023-04-27T04:37:35.387Z,74.43
2023-04-27T04:40:08.936Z,74.29
2023-04-27T04:42:37.169Z,74.55
2023-04-27T04:45:03.946Z,73.63
2023-04-27T04:47:34.430Z,73.64
2023-04-27T04:50:01.187Z,72.25
2023-04-27T04:52:27.888Z,72.93
2023-04-27T04:54:54.450Z,72.43
2023-04-27T04:57:21.471Z,71.73
2023-04-27T04:59:48.324Z,71.75
2023-04-27T05:02:15.023Z,71.63
2023-04-27T05:04:41.834Z,71.71
2023-04-27T05:07:08.524Z,71.55
2023-04-27T05:09:35.388Z,71.10
2023-04-27T05:12:02.179Z,69.68
2023-04-27T05:14:28.780Z,69.80
2023-04-27T05:16:55.424Z,70.08
2023-04-27T05:19:22.086Z,70.03
2023-04-27T05:21:48.807Z,69.90
2023-04-27T05:24:15.373Z,69.84
2023-04-27T05:26:42.979Z,69.44
2023-04-27T05:29:09.555Z,66.46
2023-04-27T05:31:36.467Z,67.05
2023-04-27T05:34:03.121Z,65.19
2023-04-27T05:36:29.749Z,65.98
2023-04-27T05:38:56.325Z,66.35
2023-04-27T05:41:23.840Z,64.67
2023-04-27T05:43:50.552Z,64.20
2023-04-27T05:46:17.235Z,65.85
2023-04-27T05:48:43.853Z,66.29
2023-04-27T05:51:10.484Z,66.56
2023-04-27T05:53:37.107Z,66.20
2023-04-27T05:56:06.643Z,65.77
2023-04-27T05:58:33.556Z,66.09
2023-04-27T06:01:03.869Z,63.47
2023-04-27T06:03:31.307Z,65.13
2023-04-27T06:05:59.310Z,63.38
2023-04-27T06:08:26.133Z,61.59
2023-04-27T06:10:53.047Z,60.34
2023-04-27T06:13:19.891Z,58.91
2023-04-27T06:15:46.623Z,58.00
2023-04-27T06:18:13.269Z,59.57
2023-04-27T06:20:40.051Z,56.75
2023-04-27T06:23:06.625Z,57.65
2023-04-27T06:25:33.262Z,55.17
2023-04-27T06:27:59.901Z,56.86
2023-04-27T06:30:26.801Z,56.21
2023-04-27T06:32:53.646Z,58.46
2023-04-27T06:35:21.545Z,58.16
2023-04-27T06:37:48.072Z,57.74
2023-04-27T06:40:14.749Z,58.45
2023-04-27T06:42:41.449Z,54.38
2023-04-27T06:45:08.261Z,55.94
2023-04-27T06:47:34.821Z,56.36
2023-04-27T06:50:01.465Z,57.52
2023-04-27T06:52:28.089Z,57.11
2023-04-27T06:54:54.882Z,57.01
2023-04-27T06:57:21.658Z,55.73
2023-04-27T06:59:48.206Z,56.04
2023-04-27T07:02:14.831Z,54.74
2023-04-27T07:04:41.620Z,55.40
2023-04-27T07:07:08.239Z,53.13
2023-04-27T07:09:34.773Z,52.53
2023-04-27T07:12:01.576Z,54.87
2023-04-27T07:14:28.159Z,52.52
2023-04-27T07:16:55.816Z,54.10
2023-04-27T07:19:22.395Z,52.43
2023-04-27T07:21:50.144Z,51.67
2023-04-27T07:24:16.726Z,48.11
2023-04-27T07:26:43.314Z,51.04
2023-04-27T07:29:25.609Z,51.03
2023-04-27T07:31:54.254Z,52.78
2023-04-27T07:34:20.845Z,50.54
2023-04-27T07:36:47.562Z,53.25
2023-04-27T07:39:14.963Z,52.58
2023-04-27T07:41:41.696Z,51.36
2023-04-27T07:44:08.339Z,51.64
2023-04-27T07:46:34.980Z,51.58
2023-04-27T07:49:02.445Z,51.01
2023-04-27T07:51:29.393Z,51.31
2023-04-27T07:53:56.441Z,51.29
2023-04-27T07:56:23.062Z,52.45
2023-04-27T07:58:49.600Z,52.38
2023-04-27T08:01:18.374Z,49.71
2023-04-27T08:03:46.225Z,50.18
2023-04-27T08:06:13.264Z,48.72
2023-04-27T08:08:40.032Z,48.91
2023-04-27T08:11:09.259Z,49.56
2023-04-27T08:13:36.287Z,50.65
2023-04-27T08:16:03.138Z,48.97
2023-04-27T08:18:29.756Z,50.01
2023-04-27T08:20:56.280Z,51.26
2023-04-27T08:23:22.910Z,49.69
2023-04-27T08:25:49.544Z,48.92
2023-04-27T08:28:16.132Z,48.67
2023-04-27T08:30:43.522Z,49.08
2023-04-27T08:33:10.790Z,50.40
2023-04-27T08:35:37.454Z,46.09
2023-04-27T08:38:04.033Z,46.66
2023-04-27T08:40:30.780Z,46.10
2023-04-27T08:42:58.403Z,48.23
2023-04-27T08:45:25.588Z,48.49
2023-04-27T08:47:52.329Z,47.98
2023-04-27T08:50:19.372Z,48.82
2023-04-27T08:52:46.439Z,49.72
2023-04-27T08:55:15.712Z,47.15
2023-04-27T08:57:53.417Z,47.70
2023-04-27T09:00:20.325Z,48.08
2023-04-27T09:02:47.436Z,47.88
2023-04-27T09:05:22.121Z,49.16
2023-04-27T09:08:05.535Z,49.35
2023-04-27T09:10:43.758Z,49.16
2023-04-27T09:13:10.273Z,48.79
2023-04-27T09:15:50.702Z,48.62
2023-04-27T09:18:21.466Z,47.78
2023-04-27T09:20:52.525Z,47.13
2023-04-27T09:23:29.657Z,47.15
2023-04-27T09:25:57.153Z,45.21
2023-04-27T09:28:24.871Z,47.04
2023-04-27T09:30:55.494Z,43.56
2023-04-27T09:33:26.383Z,44.22
2023-04-27T09:35:53.276Z,43.35
2023-04-27T09:38:20.659Z,41.97
2023-04-27T09:40:47.760Z,43.17
2023-04-27T09:43:14.566Z,42.66
2023-04-27T09:45:41.322Z,41.92
2023-04-27T09:48:08.353Z,40.42
2023-04-27T09:50:38.055Z,41.19
2023-04-27T09:53:13.728Z,41.96
2023-04-27T09:55:42.369Z,42.82
2023-04-27T09:58:20.922Z,44.33
2023-04-27T10:01:11.201Z,44.56
2023-04-27T10:03:43.823Z,43.81
2023-04-27T10:06:10.640Z,43.83
2023-04-27T10:08:37.481Z,42.09
2023-04-27T10:11:17.242Z,42.64
2023-04-27T10:13:54.806Z,42.05
2023-04-27T10:18:55.524Z,38.79
2023-04-27T10:21:22.359Z,36.71
2023-04-27T10:23:51.050Z,38.24
2023-04-27T10:26:24.278Z,33.94
2023-04-27T10:29:18.199Z,35.19
2023-04-27T10:31:48.751Z,36.80
2023-04-27T10:34:21.195Z,32.21
2023-04-27T10:36:48.184Z,34.77
2023-04-27T10:39:18.705Z,33.65
2023-04-27T10:41:51.780Z,35.46
2023-04-27T10:44:26.596Z,36.31
2023-04-27T10:46:53.706Z,36.05
2023-04-27T10:49:20.673Z,38.49
2023-04-27T10:51:47.867Z,39.06
2023-04-27T10:54:14.386Z,40.26
2023-04-27T10:56:41.659Z,41.58
2023-04-27T10:59:08.531Z,42.66
2023-04-27T11:01:35.738Z,44.30
2023-04-27T11:04:03.666Z,43.50
2023-04-27T11:06:32.176Z,43.12
2023-04-27T11:08:59.135Z,43.48
2023-04-27T11:11:26.390Z,44.52
2023-04-27T11:13:53.408Z,44.01
2023-04-27T11:16:20.233Z,45.57
2023-04-27T11:18:46.878Z,44.59
2023-04-27T11:21:17.712Z,44.62
2023-04-27T11:23:44.566Z,44.48
2023-04-27T11:26:17.000Z,44.99
2023-04-27T11:28:43.525Z,44.95
2023-04-27T11:31:11.388Z,44.91
2023-04-27T11:33:39.928Z,45.03
2023-04-27T11:36:16.029Z,44.42
2023-04-27T11:38:42.966Z,43.44
2023-04-27T11:41:09.526Z,38.98
2023-04-27T11:43:37.384Z,39.06
2023-04-27T11:46:04.895Z,39.07
2023-04-27T11:48:31.494Z,36.92
2023-04-27T11:51:01.649Z,36.37
2023-04-27T11:53:36.299Z,38.49
2023-04-27T11:56:05.530Z,37.05
2023-04-27T11:58:36.312Z,36.45
2023-04-27T12:01:06.798Z,34.57
2023-04-27T12:03:33.917Z,35.35
2023-04-27T12:06:16.184Z,35.85
2023-04-27T12:08:47.639Z,37.73
2023-04-27T12:11:14.501Z,35.21
2023-04-27T12:13:41.095Z,36.16
2023-04-27T12:16:07.691Z,36.23
2023-04-27T12:18:34.300Z,34.84
2023-04-27T12:21:03.161Z,33.18
2023-04-27T12:23:30.165Z,32.42
2023-04-27T12:25:56.749Z,34.87
2023-04-27T12:28:23.485Z,35.40
2023-04-27T12:30:50.156Z,32.96
2023-04-27T12:33:17.313Z,32.89
2023-04-27T12:35:43.906Z,34.57
2023-04-27T12:38:10.485Z,33.31
2023-04-27T12:40:37.654Z,30.39
2023-04-27T12:43:04.271Z,32.94
2023-04-27T12:45:31.068Z,30.47
2023-04-27T12:48:02.671Z,27.89
2023-04-27T12:50:31.011Z,30.69
2023-04-27T12:52:57.536Z,30.73
2023-04-27T12:55:32.843Z,29.43
2023-04-27T12:58:00.129Z,25.53
2023-04-27T13:00:26.767Z,27.54
2023-04-27T13:02:53.745Z,28.57
2023-04-27T13:05:22.124Z,26.06
2023-04-27T13:07:48.839Z,26.92
2023-04-27T13:10:15.449Z,26.38
2023-04-27T13:12:42.207Z,26.85
2023-04-27T13:15:09.250Z,27.60
2023-04-27T13:17:35.874Z,28.20
2023-04-27T13:20:02.494Z,27.73
2023-04-27T13:22:29.452Z,27.70
2023-04-27T13:24:56.324Z,27.47
2023-04-27T13:27:25.248Z,29.20
2023-04-27T13:29:51.854Z,28.68
2023-04-27T13:32:18.726Z,29.66
2023-04-27T13:34:45.547Z,28.46
2023-04-27T13:37:12.126Z,29.15
2023-04-27T13:39:38.751Z,30.24
2023-04-27T13:42:05.549Z,30.91
2023-04-27T13:44:32.132Z,31.28
2023-04-27T13:46:58.811Z,31.76
2023-04-27T13:49:26.023Z,31.15
2023-04-27T13:51:52.683Z,30.71
2023-04-27T13:54:20.068Z,30.64
2023-04-27T13:56:46.660Z,31.54
2023-04-27T13:59:13.458Z,31.84
2023-04-27T14:01:40.347Z,31.83
2023-04-27T14:04:07.647Z,30.93
2023-04-27T14:06:34.403Z,30.95
2023-04-27T14:09:01.135Z,29.41
2023-04-27T14:11:27.783Z,30.73
2023-04-27T14:13:54.313Z,28.45
2023-04-27T14:16:20.973Z,30.33
2023-04-27T14:18:47.704Z,29.78
2023-04-27T14:21:14.292Z,29.83
2023-04-27T14:23:41.060Z,29.18
2023-04-27T14:26:07.704Z,27.98
2023-04-27T14:28:34.702Z,27.89
2023-04-27T14:31:01.282Z,29.13
2023-04-27T14:33:28.014Z,26.60
2023-04-27T14:35:54.567Z,28.15
2023-04-27T14:38:21.181Z,27.88
2023-04-27T14:40:47.973Z,29.14
2023-04-27T14:43:14.574Z,29.13
2023-04-27T14:45:51.538Z,30.41
2023-04-27T14:48:20.981Z,30.45
2023-04-27T14:50:47.520Z,30.43
2023-04-27T14:53:14.092Z,30.19
2023-04-27T14:55:41.348Z,30.36
2023-04-27T14:58:07.892Z,30.53
2023-04-27T15:00:34.496Z,30.63
2023-04-27T15:03:01.427Z,31.10
2023-04-27T15:05:28.198Z,31.47
2023-04-27T15:07:54.992Z,31.77
2023-04-27T15:10:21.691Z,31.46
2023-04-27T15:12:48.256Z,31.97
2023-04-27T15:15:14.902Z,31.83
2023-04-27T15:17:41.775Z,32.11
2023-04-27T15:20:08.791Z,32.14
2023-04-27T15:22:35.409Z,32.30
2023-04-27T15:25:02.382Z,32.67
2023-04-27T15:27:29.582Z,32.76
2023-04-27T15:29:58.090Z,33.49
2023-04-27T15:32:29.960Z,33.44
2023-04-27T15:34:59.775Z,34.17
2023-04-27T15:37:28.170Z,35.23
2023-04-27T15:39:55.119Z,35.54
2023-04-27T15:42:22.084Z,36.26
2023-04-27T15:44:48.630Z,37.26
2023-04-27T15:47:15.671Z,36.46
2023-04-27T15:49:53.363Z,35.36
2023-04-27T15:52:23.134Z,35.77
2023-04-27T15:54:49.732Z,37.74
2023-04-27T15:57:18.221Z,36.56
2023-04-27T15:59:44.842Z,38.73
2023-04-27T16:02:11.560Z,37.11
2023-04-27T16:04:38.189Z,36.49
2023-04-27T16:07:06.993Z,36.95
2023-04-27T16:09:33.781Z,36.91
2023-04-27T16:12:00.472Z,36.65
2023-04-27T16:14:27.071Z,36.98
2023-04-27T16:16:56.192Z,37.51
2023-04-27T16:19:23.626Z,37.60
2023-04-27T16:21:50.383Z,39.85
2023-04-27T16:24:16.932Z,37.86
2023-04-27T16:26:43.490Z,37.97
2023-04-27T16:29:10.307Z,37.99
2023-04-27T16:31:37.312Z,38.20
2023-04-27T16:34:04.308Z,38.04
2023-04-27T16:36:32.900Z,38.38
2023-04-27T16:39:00.149Z,38.59
2023-04-27T16:41:26.940Z,39.19
2023-04-27T16:43:53.790Z,38.92
2023-04-27T16:46:20.517Z,38.85
2023-04-27T16:48:47.168Z,38.46
2023-04-27T16:51:14.182Z,38.84
2023-04-27T16:53:41.413Z,39.04
2023-04-27T16:56:08.126Z,39.86
2023-04-27T16:58:36.161Z,39.62
2023-04-27T17:01:02.801Z,39.27
2023-04-27T17:03:30.117Z,39.19
2023-04-27T17:05:56.939Z,40.35
2023-04-27T17:08:23.540Z,39.55
2023-04-27T17:10:50.198Z,39.43
2023-04-27T17:13:17.397Z,39.57
2023-04-27T17:15:44.200Z,39.62
2023-04-27T17:18:10.895Z,40.26
2023-04-27T17:20:38.793Z,40.70
2023-04-27T17:23:07.164Z,41.51
2023-04-27T17:25:33.787Z,42.10
2023-04-27T17:28:01.507Z,41.58
2023-04-27T17:30:29.093Z,42.60
2023-04-27T17:32:55.871Z,42.13
2023-04-27T17:35:22.587Z,42.29
2023-04-27T17:37:49.228Z,41.63
2023-04-27T17:40:19.998Z,41.37
2023-04-27T17:42:47.343Z,41.43
2023-04-27T17:45:14.180Z,41.73
2023-04-27T17:47:40.932Z,41.61
2023-04-27T17:50:08.010Z,41.70
2023-04-27T17:52:34.686Z,42.00
2023-04-27T17:55:01.290Z,43.97
2023-04-27T17:57:27.925Z,41.68
2023-04-27T17:59:54.505Z,41.60
2023-04-27T18:02:21.304Z,42.37
2023-04-27T18:04:48.009Z,42.25
2023-04-27T18:07:14.604Z,41.85
2023-04-27T18:09:41.304Z,41.90
2023-04-27T18:12:11.152Z,42.24
2023-04-27T18:14:38.564Z,42.46
2023-04-27T18:17:05.510Z,42.51
2023-04-27T18:19:32.143Z,43.29
2023-04-27T18:21:58.799Z,43.83
2023-04-27T18:24:25.441Z,44.40
2023-04-27T18:26:52.014Z,44.17
2023-04-27T18:29:18.687Z,44.72
2023-04-27T18:31:46.255Z,43.66
2023-04-27T18:34:14.227Z,44.27
2023-04-27T18:36:40.883Z,43.83
2023-04-27T18:39:07.461Z,44.06
2023-04-27T18:41:34.107Z,43.99
2023-04-27T18:44:04.921Z,44.32
2023-04-27T18:46:32.094Z,44.60
2023-04-27T18:48:59.035Z,44.38
2023-04-27T18:51:26.347Z,44.54
2023-04-27T18:53:53.353Z,44.57
2023-04-27T18:56:20.046Z,44.38
2023-04-27T18:58:48.515Z,45.40
2023-04-27T19:01:19.473Z,45.25
2023-04-27T19:03:46.162Z,45.39
2023-04-27T19:06:13.549Z,45.51
2023-04-27T19:08:41.585Z,46.24
2023-04-27T19:11:08.399Z,46.61
2023-04-27T19:13:35.010Z,45.73
2023-04-27T19:16:01.693Z,46.20
2023-04-27T19:18:28.632Z,46.48
2023-04-27T19:20:55.338Z,46.96
2023-04-27T19:23:21.934Z,47.67
2023-04-27T19:25:48.589Z,47.39
2023-04-27T19:28:20.514Z,48.18
2023-04-27T19:30:47.382Z,48.42
2023-04-27T19:33:14.420Z,48.75
2023-04-27T19:35:41.558Z,49.25
2023-04-27T19:38:08.155Z,49.06
2023-04-27T19:40:34.769Z,49.76
2023-04-27T19:43:01.403Z,49.64
2023-04-27T19:45:27.917Z,50.27
2023-04-27T19:47:54.572Z,50.70
2023-04-27T19:50:21.166Z,49.87
2023-04-27T19:52:47.853Z,50.68
2023-04-27T19:55:14.444Z,50.54
2023-04-27T19:57:41.278Z,51.29
2023-04-27T20:00:12.102Z,51.99
2023-04-27T20:02:38.992Z,52.46
2023-04-27T20:05:06.294Z,51.64
2023-04-27T20:07:33.083Z,51.55
2023-04-27T20:09:59.772Z,51.49
2023-04-27T20:12:47.361Z,50.91
2023-04-27T20:15:13.398Z,49.57
2023-04-27T20:17:40.016Z,50.18
2023-04-27T20:20:10.076Z,50.13
2023-04-27T20:22:37.079Z,51.80
2023-04-27T20:25:04.262Z,51.03
2023-04-27T20:27:30.911Z,54.47
2023-04-27T20:29:57.489Z,52.69
2023-04-27T20:32:24.004Z,51.59
2023-04-27T20:34:50.724Z,50.85
2023-04-27T20:37:17.319Z,49.44
2023-04-27T20:39:43.935Z,48.89
2023-04-27T20:42:12.550Z,49.31
2023-04-27T20:44:39.206Z,49.04
2023-04-27T20:47:06.057Z,48.84
2023-04-27T20:49:35.390Z,49.27
2023-04-27T20:52:02.618Z,49.23
2023-04-27T20:54:32.678Z,50.75
2023-04-27T20:57:01.934Z,49.55
2023-04-27T20:59:28.884Z,49.79
2023-04-27T21:01:56.342Z,50.84
2023-04-27T21:04:23.123Z,50.09
2023-04-27T21:06:49.773Z,50.08
2023-04-27T21:09:16.345Z,50.21
2023-04-27T21:11:43.196Z,50.19
2023-04-27T21:14:09.858Z,51.14
2023-04-27T21:16:36.440Z,51.37
2023-04-27T21:19:03.134Z,50.85
2023-04-27T21:21:29.687Z,51.64
2023-04-27T21:24:06.525Z,51.74
2023-04-27T21:26:34.388Z,51.68
2023-04-27T21:29:01.513Z,52.83
2023-04-27T21:31:28.158Z,52.03
2023-04-27T21:33:54.838Z,52.59
2023-04-27T21:36:21.574Z,53.23
2023-04-27T21:38:48.175Z,54.17
2023-04-27T21:41:16.609Z,54.66
2023-04-27T21:43:43.469Z,54.97
2023-04-27T21:46:10.097Z,56.23
2023-04-27T21:48:36.734Z,54.79
2023-04-27T21:51:03.379Z,54.42
2023-04-27T21:53:30.631Z,54.92
2023-04-27T21:55:57.353Z,55.33
2023-04-27T21:58:24.421Z,55.77
2023-04-27T22:00:51.667Z,59.04
2023-04-27T22:03:18.397Z,54.92
2023-04-27T22:05:45.509Z,57.48
2023-04-27T22:08:12.230Z,56.74
2023-04-27T22:10:38.840Z,55.27
2023-04-27T22:13:17.693Z,58.74
2023-04-27T22:15:46.154Z,56.55
2023-04-27T22:18:14.531Z,56.91
2023-04-27T22:20:42.449Z,58.19
2023-04-27T22:23:09.545Z,57.17
2023-04-27T22:25:36.269Z,57.26
2023-04-27T22:28:02.921Z,58.40
2023-04-27T22:30:29.899Z,57.23
2023-04-27T22:32:56.790Z,56.90
2023-04-27T22:35:27.040Z,57.41
2023-04-27T22:37:59.002Z,57.27
2023-04-27T22:40:25.928Z,57.56
2023-04-27T22:42:52.895Z,58.20
2023-04-27T22:45:19.426Z,57.62
2023-04-27T22:47:46.272Z,57.67
2023-04-27T22:50:13.402Z,57.38
2023-04-27T22:52:42.379Z,57.91
2023-04-27T22:55:09.512Z,57.86
2023-04-27T22:57:36.171Z,58.42
2023-04-27T23:00:05.194Z,61.12
2023-04-27T23:02:32.565Z,59.42
2023-04-27T23:04:59.365Z,59.30
2023-04-27T23:07:25.949Z,59.92
2023-04-27T23:09:53.035Z,59.00
2023-04-27T23:12:20.806Z,59.35
2023-04-27T23:14:47.450Z,58.87
2023-04-27T23:17:15.502Z,59.76
2023-04-27T23:19:42.141Z,58.54
2023-04-27T23:22:08.756Z,58.32
2023-04-27T23:24:35.294Z,58.74
2023-04-27T23:27:02.069Z,59.10
2023-04-27T23:29:28.663Z,59.47
2023-04-27T23:31:55.534Z,60.18
2023-04-27T23:34:22.333Z,60.28
2023-04-27T23:36:48.885Z,59.18
2023-04-27T23:39:15.724Z,59.41
2023-04-27T23:41:42.302Z,61.13
2023-04-27T23:44:09.066Z,59.38
2023-04-27T23:46:35.749Z,59.94
2023-04-27T23:49:03.023Z,60.17
2023-04-27T23:51:29.606Z,59.47
2023-04-27T23:53:56.417Z,60.16
2023-04-27T23:56:23.146Z,60.27
2023-04-27T23:58:49.863Z,60.45
